Nbp Island — V2FH3 — position and weather

sailwx.info

Track history (hours):
 
Tides and Currents Weather Stations Pressure Air Temp Water Temp Dewpoint Dewpoint Depression Visibility Wind Speed Wind Dir Waves Ship Positions

Nbp Island

Last reported at 2015-Apr-18 12:11 UTC. Time now 2015-Apr-19 04:32 UTC.
Position N 37°05' E 003°59'.

Length 107 m; draft 7.5 m.

Type: Cargo ship. MMSI: 305674000.

Date/timePositionNaut miles runAvg speedWind from/ knotsBaromVisibWave heightAir tempDewpointWater temp
2015-Apr-18 12:11N 37°05' E 003°59'12110.3
2015-Apr-18 00:23N 36°50' E 001°28'8 9.9
2015-Apr-17 23:32N 36°49' E 001°18'2110.0
2015-Apr-17 21:28N 36°45' E 000°53'1010.5
2015-Apr-17 20:33N 36°42' E 000°41'2310.6
2015-Apr-17 18:24N 36°38' E 000°13'4510.4
2015-Apr-17 14:07N 36°30' W 000°41'22010.1
2015-Apr-16 16:23N 35°58' W 005°12'1012.4
2015-Apr-16 15:33N 35°57' W 005°24'  
2015-Apr-12 06:20N 37°25' W 009°44'810.0
2015-Apr-12 05:33N 37°33' W 009°46'11 9.7
2015-Apr-12 04:27N 37°43' W 009°49'18 9.2
2015-Apr-12 02:32N 37°60' W 009°55'10 9.5
2015-Apr-12 01:30N 38°10' W 009°57'9 9.8
2015-Apr-12 00:32N 38°19' W 009°60'1010.0
2015-Apr-11 23:32N 38°29' W 010°03'1010.2
2015-Apr-11 22:33N 38°38' W 010°06'1010.1
2015-Apr-11 21:33N 38°48' W 010°07'1510.2
2015-Apr-11 20:07N 39°03' W 010°07'710.0
2015-Apr-11 19:26N 39°10' W 010°07'  
2015-Apr-08 18:08N 49°54' W 003°07'811.1
2015-Apr-08 17:24N 49°58' W 002°56'1012.2
2015-Apr-08 16:34N 50°01' W 002°40'1313.2
2015-Apr-08 15:33N 50°05' W 002°21'1313.2
2015-Apr-08 14:33N 50°09' W 002°01'  
Track history (hours):
 
Tides and Currents Weather Stations Pressure Air Temp Water Temp Dewpoint Dewpoint Depression Visibility Wind Speed Wind Dir Waves Ship Positions

Nbp Island

Last reported at 2015-Apr-18 12:11 UTC. Time now 2015-Apr-19 04:32 UTC.
Position N 37°05' E 003°59'.

Length 107 m; draft 7.5 m.

Type: Cargo ship. MMSI: 305674000.

Date/timePositionNaut miles runAvg speedWind from/ knotsBaromVisibWave heightAir tempDewpointWater temp
2015-Apr-18 12:11N 37°05' E 003°59'12110.3
2015-Apr-18 00:23N 36°50' E 001°28'8 9.9
2015-Apr-17 23:32N 36°49' E 001°18'2110.0
2015-Apr-17 21:28N 36°45' E 000°53'1010.5
2015-Apr-17 20:33N 36°42' E 000°41'2310.6
2015-Apr-17 18:24N 36°38' E 000°13'4510.4
2015-Apr-17 14:07N 36°30' W 000°41'22010.1
2015-Apr-16 16:23N 35°58' W 005°12'1012.4
2015-Apr-16 15:33N 35°57' W 005°24'  
2015-Apr-12 06:20N 37°25' W 009°44'810.0
2015-Apr-12 05:33N 37°33' W 009°46'11 9.7
2015-Apr-12 04:27N 37°43' W 009°49'18 9.2
2015-Apr-12 02:32N 37°60' W 009°55'10 9.5
2015-Apr-12 01:30N 38°10' W 009°57'9 9.8
2015-Apr-12 00:32N 38°19' W 009°60'1010.0
2015-Apr-11 23:32N 38°29' W 010°03'1010.2
2015-Apr-11 22:33N 38°38' W 010°06'1010.1
2015-Apr-11 21:33N 38°48' W 010°07'1510.2
2015-Apr-11 20:07N 39°03' W 010°07'710.0
2015-Apr-11 19:26N 39°10' W 010°07'  
2015-Apr-08 18:08N 49°54' W 003°07'811.1
2015-Apr-08 17:24N 49°58' W 002°56'1012.2
2015-Apr-08 16:34N 50°01' W 002°40'1313.2
2015-Apr-08 15:33N 50°05' W 002°21'1313.2
2015-Apr-08 14:33N 50°09' W 002°01'  

Dump ship's entire track history